createdAt,value
2018-05-25T00:00:56.995Z,14.57
2018-05-25T00:03:25.357Z,14.63
2018-05-25T00:05:52.933Z,13.77
2018-05-25T00:08:20.520Z,13.53
2018-05-25T00:10:48.109Z,13.97
2018-05-25T00:13:15.712Z,14.80
2018-05-25T00:15:44.085Z,14.23
2018-05-25T00:18:12.461Z,14.50
2018-05-25T00:20:40.816Z,15.97
2018-05-25T00:23:08.409Z,14.23
2018-05-25T00:25:36.005Z,14.43
2018-05-25T00:28:03.618Z,14.73
2018-05-25T00:30:31.202Z,14.30
2018-05-25T00:32:59.575Z,14.10
2018-05-25T00:35:27.308Z,13.90
2018-05-25T00:37:54.923Z,13.17
2018-05-25T00:40:22.518Z,13.40
2018-05-25T00:42:50.120Z,12.23
2018-05-25T00:45:18.477Z,12.67
2018-05-25T00:47:46.203Z,11.60
2018-05-25T00:50:13.790Z,11.43
2018-05-25T00:52:41.386Z,12.10
2018-05-25T00:55:20.746Z,11.77
2018-05-25T00:57:48.342Z,11.17
2018-05-25T01:00:15.951Z,11.23
2018-05-25T01:02:43.677Z,10.93
2018-05-25T01:05:11.270Z,10.97
2018-05-25T01:07:38.867Z,9.90
2018-05-25T01:10:06.452Z,11.77
2018-05-25T01:12:34.044Z,10.37
2018-05-25T01:15:01.693Z,10.93
2018-05-25T01:17:29.286Z,11.07
2018-05-25T01:19:57.654Z,9.53
2018-05-25T01:22:25.261Z,10.43
2018-05-25T01:24:52.840Z,9.83
2018-05-25T01:27:20.431Z,10.37
2018-05-25T01:29:48.024Z,10.10
2018-05-25T01:32:15.732Z,10.93
2018-05-25T01:34:43.460Z,11.10
2018-05-25T01:37:11.057Z,11.00
2018-05-25T01:39:38.652Z,10.90
2018-05-25T01:42:06.241Z,10.97
2018-05-25T01:44:33.848Z,11.07
2018-05-25T01:47:01.446Z,10.80
2018-05-25T01:49:29.010Z,9.73
2018-05-25T01:51:57.786Z,10.73
2018-05-25T01:54:25.545Z,10.37
2018-05-25T01:56:53.117Z,10.70
2018-05-25T01:59:21.453Z,11.70
2018-05-25T02:01:49.177Z,11.30
2018-05-25T02:04:16.832Z,10.97
2018-05-25T02:06:45.190Z,11.63
2018-05-25T02:09:12.967Z,10.97
2018-05-25T02:11:41.035Z,10.60
2018-05-25T02:14:08.673Z,10.93
2018-05-25T02:16:36.280Z,10.50
2018-05-25T02:19:04.784Z,10.47
2018-05-25T02:21:32.396Z,10.57
2018-05-25T02:23:59.979Z,10.77
2018-05-25T02:26:27.585Z,10.83
2018-05-25T02:28:55.206Z,10.23
2018-05-25T02:31:22.901Z,10.50
2018-05-25T02:33:50.513Z,12.37
2018-05-25T02:36:18.503Z,12.13
2018-05-25T02:38:47.051Z,11.30
2018-05-25T02:41:14.650Z,11.63
2018-05-25T02:43:42.351Z,11.00
2018-05-25T02:46:09.958Z,10.87
2018-05-25T02:48:37.533Z,11.30
2018-05-25T02:51:05.866Z,11.67
2018-05-25T02:53:33.471Z,10.77
2018-05-25T02:56:01.051Z,11.77
2018-05-25T02:58:28.644Z,12.03
2018-05-25T03:00:56.228Z,12.47
2018-05-25T03:03:23.829Z,12.27
2018-05-25T03:05:52.163Z,11.97
2018-05-25T03:08:19.958Z,12.60
2018-05-25T03:10:48.329Z,12.17
2018-05-25T03:13:16.030Z,12.63
2018-05-25T03:15:43.637Z,13.13
2018-05-25T03:18:11.293Z,13.33
2018-05-25T03:20:38.887Z,13.30
2018-05-25T03:23:06.489Z,12.97
2018-05-25T03:25:34.217Z,14.33
2018-05-25T03:28:02.057Z,13.47
2018-05-25T03:30:29.865Z,14.00
2018-05-25T03:32:57.469Z,13.00
2018-05-25T03:35:25.068Z,12.90
2018-05-25T03:37:53.431Z,14.87
2018-05-25T03:40:21.165Z,13.57
2018-05-25T03:42:48.807Z,15.57
2018-05-25T03:45:16.380Z,13.33
2018-05-25T03:47:43.957Z,12.47
2018-05-25T03:50:11.583Z,12.67
2018-05-25T03:52:39.173Z,12.13
2018-05-25T03:55:06.746Z,11.80
2018-05-25T03:57:34.365Z,11.70
2018-05-25T04:00:13.776Z,11.27
2018-05-25T04:02:41.361Z,10.57
2018-05-25T04:05:08.946Z,11.40
2018-05-25T04:07:36.552Z,10.53
2018-05-25T04:10:04.146Z,9.77
2018-05-25T04:12:31.782Z,9.90
2018-05-25T04:14:59.360Z,9.23
2018-05-25T04:17:27.094Z,11.13
2018-05-25T04:19:54.672Z,10.70
2018-05-25T04:22:22.253Z,9.60
2018-05-25T04:24:49.839Z,8.70
2018-05-25T04:27:17.641Z,7.90
2018-05-25T04:29:45.248Z,8.47
2018-05-25T04:32:12.833Z,8.47
2018-05-25T04:34:40.429Z,7.60
2018-05-25T04:37:08.018Z,7.53
2018-05-25T04:39:35.601Z,9.03
2018-05-25T04:42:03.163Z,8.20
2018-05-25T04:44:30.753Z,8.37
2018-05-25T04:46:58.389Z,7.20
2018-05-25T04:49:25.975Z,8.10
2018-05-25T04:51:53.580Z,7.17
2018-05-25T04:54:21.165Z,7.30
2018-05-25T04:56:48.764Z,7.43
2018-05-25T04:59:16.354Z,7.57
2018-05-25T05:01:43.959Z,6.83
2018-05-25T05:04:11.569Z,6.30
2018-05-25T05:06:39.162Z,7.10
2018-05-25T05:09:07.522Z,7.07
2018-05-25T05:11:35.115Z,6.83
2018-05-25T05:14:02.723Z,6.93
2018-05-25T05:16:30.306Z,6.27
2018-05-25T05:18:57.959Z,6.37
2018-05-25T05:21:25.560Z,6.93
2018-05-25T05:23:53.155Z,6.70
2018-05-25T05:26:20.762Z,6.33
2018-05-25T05:28:48.690Z,6.73
2018-05-25T05:31:16.249Z,6.60
2018-05-25T05:33:43.838Z,6.83
2018-05-25T05:36:11.439Z,6.70
2018-05-25T05:38:39.035Z,6.10
2018-05-25T05:41:06.616Z,6.43
2018-05-25T05:43:34.209Z,5.77
2018-05-25T05:46:02.566Z,6.00
2018-05-25T05:48:30.342Z,6.20
2018-05-25T05:50:57.934Z,5.50
2018-05-25T05:53:26.300Z,5.23
2018-05-25T05:55:53.860Z,5.50
2018-05-25T05:58:22.349Z,5.30
2018-05-25T06:00:49.944Z,5.73
2018-05-25T06:03:17.524Z,5.70
2018-05-25T06:05:45.109Z,5.53
2018-05-25T06:08:12.669Z,7.47
2018-05-25T06:10:40.998Z,5.17
2018-05-25T06:13:08.568Z,5.47
2018-05-25T06:15:36.185Z,6.03
2018-05-25T06:18:04.945Z,6.13
2018-05-25T06:20:32.565Z,6.03
2018-05-25T06:23:00.222Z,6.73
2018-05-25T06:25:27.852Z,5.97
2018-05-25T06:27:55.434Z,6.27
2018-05-25T06:30:23.006Z,5.90
2018-05-25T06:32:50.565Z,5.57
2018-05-25T06:35:18.145Z,5.93
2018-05-25T06:37:45.713Z,5.97
2018-05-25T06:40:13.429Z,5.70
2018-05-25T06:42:41.846Z,5.77
2018-05-25T06:45:09.443Z,5.87
2018-05-25T06:47:37.202Z,5.73
2018-05-25T06:50:04.778Z,5.60
2018-05-25T06:52:32.384Z,5.80
2018-05-25T06:54:59.970Z,6.27
2018-05-25T06:57:27.544Z,8.17
2018-05-25T06:59:55.148Z,7.73
2018-05-25T07:02:22.719Z,5.60
2018-05-25T07:04:50.314Z,7.10
2018-05-25T07:07:17.892Z,6.93
2018-05-25T07:09:45.477Z,6.13
2018-05-25T07:12:13.061Z,7.53
2018-05-25T07:14:40.664Z,5.20
2018-05-25T07:17:08.232Z,6.00
2018-05-25T07:19:35.794Z,5.27
2018-05-25T07:22:03.372Z,5.70
2018-05-25T07:24:30.962Z,10.50
2018-05-25T07:26:58.554Z,5.87
2018-05-25T07:29:26.117Z,7.43
2018-05-25T07:31:53.705Z,7.13
2018-05-25T07:34:21.266Z,6.83
2018-05-25T07:36:48.853Z,6.07
2018-05-25T07:39:18.431Z,6.90
2018-05-25T07:41:46.034Z,6.90
2018-05-25T07:44:13.729Z,6.03
2018-05-25T07:46:41.322Z,6.23
2018-05-25T07:49:08.882Z,8.07
2018-05-25T07:51:36.474Z,6.63
2018-05-25T07:54:04.835Z,7.25
2018-05-25T07:56:32.422Z,7.70
2018-05-25T07:59:00.746Z,7.00
2018-05-25T08:01:28.309Z,7.37
2018-05-25T08:03:55.894Z,8.52
2018-05-25T08:06:23.565Z,10.75
2018-05-25T08:08:54.063Z,8.43
2018-05-25T08:13:55.560Z,8.55
2018-05-25T08:16:23.856Z,6.37
2018-05-25T08:18:52.209Z,7.78
2018-05-25T08:21:19.792Z,10.73
2018-05-25T08:23:47.372Z,6.47
2018-05-25T08:26:15.094Z,6.95
2018-05-25T08:28:42.685Z,8.20
2018-05-25T08:31:11.054Z,7.60
2018-05-25T08:33:39.409Z,7.25
2018-05-25T08:36:06.985Z,8.77
2018-05-25T08:38:34.545Z,7.62
2018-05-25T08:41:02.138Z,7.40
2018-05-25T08:43:29.734Z,6.57
2018-05-25T08:45:57.337Z,6.72
2018-05-25T08:48:25.686Z,7.53
2018-05-25T08:50:53.254Z,6.68
2018-05-25T08:53:20.843Z,7.20
2018-05-25T08:55:48.406Z,5.90
2018-05-25T08:58:16.865Z,8.40
2018-05-25T09:00:44.447Z,6.00
2018-05-25T09:03:12.029Z,7.18
2018-05-25T09:05:39.598Z,5.45
2018-05-25T09:08:07.177Z,7.68
2018-05-25T09:10:34.769Z,5.55
2018-05-25T09:13:02.353Z,5.45
2018-05-25T09:15:30.890Z,5.40
2018-05-25T09:17:58.476Z,5.07
2018-05-25T09:20:26.154Z,4.60
2018-05-25T09:22:53.766Z,5.20
2018-05-25T09:25:21.364Z,5.70
2018-05-25T09:27:49.003Z,5.43
2018-05-25T09:30:16.589Z,5.68
2018-05-25T09:32:44.734Z,6.75
2018-05-25T09:35:12.325Z,4.97
2018-05-25T09:37:39.922Z,5.22
2018-05-25T09:40:07.495Z,4.72
2018-05-25T09:42:35.085Z,5.05
2018-05-25T09:45:02.805Z,5.32
2018-05-25T09:47:30.375Z,4.82
2018-05-25T09:49:57.964Z,5.60
2018-05-25T09:52:25.571Z,5.55
2018-05-25T09:54:53.962Z,5.75
2018-05-25T09:57:21.585Z,5.47
2018-05-25T09:59:49.162Z,5.20
2018-05-25T10:02:16.824Z,5.20
2018-05-25T10:04:44.420Z,6.15
2018-05-25T10:07:12.020Z,5.30
2018-05-25T10:09:39.603Z,7.15
2018-05-25T10:12:07.506Z,6.10
2018-05-25T10:14:35.852Z,5.62
2018-05-25T10:17:03.446Z,10.82
2018-05-25T10:19:31.929Z,5.78
2018-05-25T10:21:59.555Z,4.87
2018-05-25T10:24:27.203Z,5.20
2018-05-25T10:26:54.787Z,4.68
2018-05-25T10:29:22.353Z,6.57
2018-05-25T10:31:49.951Z,4.45
2018-05-25T10:34:17.545Z,6.00
2018-05-25T10:36:45.145Z,5.22
2018-05-25T10:39:12.735Z,4.72
2018-05-25T10:41:40.322Z,4.37
2018-05-25T10:44:08.075Z,5.62
2018-05-25T10:46:35.674Z,4.97
2018-05-25T10:49:04.035Z,4.97
2018-05-25T10:51:31.625Z,4.62
2018-05-25T10:53:59.218Z,4.43
2018-05-25T10:56:26.803Z,4.65
2018-05-25T10:58:54.370Z,5.25
2018-05-25T11:01:21.937Z,5.57
2018-05-25T11:03:49.523Z,7.07
2018-05-25T11:06:17.903Z,5.22
2018-05-25T11:08:45.473Z,5.22
2018-05-25T11:11:13.066Z,5.57
2018-05-25T11:13:41.114Z,6.28
2018-05-25T11:16:09.471Z,5.05
2018-05-25T11:18:37.227Z,4.90
2018-05-25T11:21:04.846Z,5.45
2018-05-25T11:23:32.478Z,5.18
2018-05-25T11:26:00.050Z,6.10
2018-05-25T11:28:27.642Z,5.40
2018-05-25T11:30:55.233Z,5.65
2018-05-25T11:33:22.864Z,7.65
2018-05-25T11:35:50.595Z,6.05
2018-05-25T11:38:18.179Z,5.57
2018-05-25T11:40:45.753Z,5.07
2018-05-25T11:43:13.346Z,5.20
2018-05-25T11:45:40.935Z,5.90
2018-05-25T11:48:08.608Z,5.43
2018-05-25T11:50:37.002Z,5.65
2018-05-25T11:53:04.619Z,5.30
2018-05-25T11:55:32.193Z,15.38
2018-05-25T11:57:59.771Z,5.55
2018-05-25T12:00:27.377Z,5.25
2018-05-25T12:02:55.769Z,7.10
2018-05-25T12:05:24.106Z,5.43
2018-05-25T12:07:51.753Z,6.53
2018-05-25T12:10:19.360Z,7.05
2018-05-25T12:12:47.003Z,5.53
2018-05-25T12:15:14.953Z,6.32
2018-05-25T12:17:43.572Z,7.00
2018-05-25T12:20:11.250Z,5.50
2018-05-25T12:22:38.819Z,7.45
2018-05-25T12:25:06.423Z,5.53
2018-05-25T12:27:34.034Z,6.18
2018-05-25T12:30:01.624Z,5.53
2018-05-25T12:32:29.236Z,6.20
2018-05-25T12:34:56.833Z,6.30
2018-05-25T12:37:24.426Z,5.60
2018-05-25T12:39:52.022Z,6.43
2018-05-25T12:42:19.639Z,6.85
2018-05-25T12:44:58.962Z,23.87
2018-05-25T12:47:26.598Z,6.82
2018-05-25T12:49:54.175Z,6.22
2018-05-25T12:52:21.747Z,6.32
2018-05-25T12:54:49.325Z,9.20
2018-05-25T12:57:16.918Z,6.45
2018-05-25T12:59:44.516Z,6.60
2018-05-25T13:02:12.089Z,7.40
2018-05-25T13:04:39.713Z,5.80
2018-05-25T13:07:07.272Z,6.82
2018-05-25T13:09:34.868Z,7.12
2018-05-25T13:12:02.453Z,5.30
2018-05-25T13:14:30.049Z,6.95
2018-05-25T13:16:57.642Z,6.12
2018-05-25T13:19:25.219Z,6.03
2018-05-25T13:21:52.804Z,5.30
2018-05-25T13:24:20.532Z,8.45
2018-05-25T13:26:48.102Z,6.28
2018-05-25T13:29:15.699Z,6.20
2018-05-25T13:31:43.309Z,6.95
2018-05-25T13:34:10.873Z,5.50
2018-05-25T13:36:38.459Z,5.45
2018-05-25T13:39:06.059Z,6.43
2018-05-25T13:41:33.674Z,5.55
2018-05-25T13:44:01.269Z,5.43
2018-05-25T13:46:29.744Z,5.40
2018-05-25T13:48:57.333Z,6.12
2018-05-25T13:51:24.917Z,8.25
2018-05-25T13:53:52.499Z,6.20
2018-05-25T13:56:20.085Z,5.82
2018-05-25T13:58:48.415Z,6.30
2018-05-25T14:01:15.992Z,5.50
2018-05-25T14:03:43.596Z,5.45
2018-05-25T14:06:11.389Z,5.72
2018-05-25T14:08:40.243Z,10.00
2018-05-25T14:11:07.830Z,5.68
2018-05-25T14:13:35.412Z,6.35
2018-05-25T14:16:02.984Z,5.30
2018-05-25T14:18:30.551Z,6.82
2018-05-25T14:20:58.124Z,5.62
2018-05-25T14:23:25.831Z,5.80
2018-05-25T14:25:54.201Z,5.10
2018-05-25T14:28:22.581Z,6.18
2018-05-25T14:30:50.932Z,7.90
2018-05-25T14:33:18.507Z,5.68
2018-05-25T14:35:46.160Z,5.60
2018-05-25T14:38:13.929Z,8.75
2018-05-25T14:40:41.528Z,5.22
2018-05-25T14:43:09.130Z,12.13
2018-05-25T14:45:36.703Z,6.40
2018-05-25T14:48:04.329Z,6.00
2018-05-25T14:50:32.689Z,6.00
2018-05-25T14:53:00.285Z,5.40
2018-05-25T14:55:27.874Z,5.45
2018-05-25T14:57:55.510Z,5.07
2018-05-25T15:00:23.109Z,5.55
2018-05-25T15:02:50.697Z,4.80
2018-05-25T15:05:18.269Z,7.82
2018-05-25T15:07:46.763Z,5.75
2018-05-25T15:10:14.413Z,6.28
2018-05-25T15:12:41.991Z,8.18
2018-05-25T15:15:09.587Z,5.53
2018-05-25T15:17:37.186Z,5.47
2018-05-25T15:20:05.517Z,5.55
2018-05-25T15:22:33.112Z,5.05
2018-05-25T15:25:01.467Z,4.93
2018-05-25T15:27:29.073Z,5.87
2018-05-25T15:29:56.702Z,5.37
2018-05-25T15:32:24.269Z,4.97
2018-05-25T15:34:51.866Z,7.65
2018-05-25T15:37:20.584Z,5.22
2018-05-25T15:39:48.179Z,5.12
2018-05-25T15:42:15.796Z,4.78
2018-05-25T15:44:43.406Z,4.65
2018-05-25T15:47:11.022Z,6.18
2018-05-25T15:49:38.641Z,5.60
2018-05-25T15:52:06.233Z,5.95
2018-05-25T15:54:33.812Z,5.03
2018-05-25T15:57:01.432Z,5.43
2018-05-25T15:59:29.015Z,5.28
2018-05-25T16:01:56.626Z,7.62
2018-05-25T16:04:24.234Z,5.47
2018-05-25T16:06:51.848Z,5.90
2018-05-25T16:09:19.443Z,5.57
2018-05-25T16:11:47.036Z,5.40
2018-05-25T16:14:14.671Z,5.47
2018-05-25T16:16:42.267Z,5.47
2018-05-25T16:19:09.876Z,5.12
2018-05-25T16:21:38.232Z,5.85
2018-05-25T16:24:05.814Z,5.70
2018-05-25T16:26:33.396Z,5.57
2018-05-25T16:29:01.227Z,5.53
2018-05-25T16:31:28.857Z,6.28
2018-05-25T16:33:56.458Z,5.50
2018-05-25T16:36:24.814Z,5.40
2018-05-25T16:38:52.433Z,5.40
2018-05-25T16:41:20.034Z,5.20
2018-05-25T16:43:47.627Z,5.35
2018-05-25T16:46:15.987Z,5.10
2018-05-25T16:48:43.584Z,5.37
2018-05-25T16:51:11.159Z,5.10
2018-05-25T16:53:38.763Z,5.53
2018-05-25T16:56:06.363Z,4.85
2018-05-25T16:58:34.723Z,5.62
2018-05-25T17:01:02.331Z,5.32
2018-05-25T17:03:29.911Z,5.20
2018-05-25T17:05:57.504Z,4.95
2018-05-25T17:08:25.088Z,5.70
2018-05-25T17:10:52.672Z,5.03
2018-05-25T17:13:20.238Z,5.62
2018-05-25T17:15:47.981Z,5.32
2018-05-25T17:18:15.550Z,5.93
2018-05-25T17:23:17.083Z,5.03
2018-05-25T17:25:44.679Z,5.72
2018-05-25T17:28:12.300Z,5.45
2018-05-25T17:30:39.933Z,5.25
2018-05-25T17:33:07.567Z,5.12
2018-05-25T17:35:35.164Z,4.93
2018-05-25T17:38:02.767Z,5.30
2018-05-25T17:40:30.356Z,5.50
2018-05-25T17:42:57.959Z,5.35
2018-05-25T17:45:25.567Z,6.30
2018-05-25T17:47:53.410Z,5.00
2018-05-25T17:50:20.999Z,4.60
2018-05-25T17:52:48.572Z,4.75
2018-05-25T17:55:16.160Z,5.40
2018-05-25T17:57:43.739Z,5.10
2018-05-25T18:00:11.383Z,5.30
2018-05-25T18:02:38.956Z,5.20
2018-05-25T18:05:06.546Z,6.05
2018-05-25T18:07:34.162Z,5.70
2018-05-25T18:10:01.742Z,5.15
2018-05-25T18:12:29.362Z,4.70
2018-05-25T18:14:56.961Z,4.35
2018-05-25T18:17:24.754Z,4.60
2018-05-25T18:19:52.384Z,4.65
2018-05-25T18:22:19.989Z,4.70
2018-05-25T18:24:48.345Z,4.70
2018-05-25T18:27:15.966Z,4.37
2018-05-25T18:29:43.542Z,4.87
2018-05-25T18:32:11.138Z,4.22
2018-05-25T18:34:38.733Z,4.62
2018-05-25T18:37:06.348Z,4.97
2018-05-25T18:39:33.936Z,5.07
2018-05-25T18:42:01.542Z,5.10
2018-05-25T18:44:29.110Z,4.97
2018-05-25T18:46:56.700Z,4.75
2018-05-25T18:49:24.326Z,5.00
2018-05-25T18:51:51.937Z,5.32
2018-05-25T18:54:31.282Z,4.57
2018-05-25T18:56:59.019Z,4.68
2018-05-25T18:59:26.600Z,5.00
2018-05-25T19:01:54.943Z,5.07
2018-05-25T19:04:22.534Z,4.75
2018-05-25T19:06:50.129Z,4.68
2018-05-25T19:09:17.712Z,5.32
2018-05-25T19:11:45.315Z,4.78
2018-05-25T19:14:12.973Z,4.65
2018-05-25T19:16:40.573Z,5.20
2018-05-25T19:19:08.176Z,4.10
2018-05-25T19:21:35.755Z,5.20
2018-05-25T19:24:03.352Z,5.37
2018-05-25T19:26:31.709Z,5.90
2018-05-25T19:28:59.452Z,5.50
2018-05-25T19:31:27.050Z,6.28
2018-05-25T19:33:54.638Z,5.40
2018-05-25T19:36:22.241Z,6.12
2018-05-25T19:38:49.843Z,5.65
2018-05-25T19:41:17.446Z,5.75
2018-05-25T19:43:45.052Z,6.25
2018-05-25T19:46:12.652Z,6.10
2018-05-25T19:48:40.268Z,6.28
2018-05-25T19:51:07.835Z,5.82
2018-05-25T19:53:35.398Z,5.78
2018-05-25T19:56:02.992Z,5.70
2018-05-25T19:58:30.803Z,5.50
2018-05-25T20:00:58.450Z,4.97
2018-05-25T20:03:26.039Z,7.18
2018-05-25T20:05:53.632Z,5.95
2018-05-25T20:08:21.223Z,4.85
2018-05-25T20:10:48.820Z,5.05
2018-05-25T20:13:16.389Z,4.37
2018-05-25T20:15:43.987Z,4.43
2018-05-25T20:18:11.577Z,5.47
2018-05-25T20:20:39.156Z,4.90
2018-05-25T20:23:06.802Z,4.78
2018-05-25T20:25:34.379Z,5.43
2018-05-25T20:28:04.001Z,5.15
2018-05-25T20:30:31.575Z,4.82
2018-05-25T20:32:59.152Z,5.25
2018-05-25T20:35:26.745Z,4.60
2018-05-25T20:37:54.328Z,4.60
2018-05-25T20:40:21.910Z,5.10
2018-05-25T20:42:49.491Z,5.03
2018-05-25T20:45:17.067Z,4.50
2018-05-25T20:47:44.643Z,5.20
2018-05-25T20:50:12.244Z,5.50
2018-05-25T20:52:39.850Z,5.60
2018-05-25T20:55:07.450Z,5.97
2018-05-25T20:57:37.147Z,6.30
2018-05-25T21:00:04.747Z,6.60
2018-05-25T21:02:32.378Z,6.70
2018-05-25T21:04:59.955Z,6.70
2018-05-25T21:07:27.570Z,6.12
2018-05-25T21:09:55.217Z,6.55
2018-05-25T21:12:22.841Z,6.25
2018-05-25T21:14:50.441Z,6.10
2018-05-25T21:17:18.098Z,6.47
2018-05-25T21:19:46.450Z,6.78
2018-05-25T21:22:14.032Z,6.20
2018-05-25T21:24:41.659Z,6.53
2018-05-25T21:27:12.833Z,7.10
2018-05-25T21:29:40.870Z,6.70
2018-05-25T21:32:08.439Z,6.35
2018-05-25T21:34:36.020Z,8.55
2018-05-25T21:37:03.598Z,5.75
2018-05-25T21:39:31.958Z,5.80
2018-05-25T21:41:59.535Z,6.15
2018-05-25T21:44:27.958Z,6.60
2018-05-25T21:46:55.558Z,6.35
2018-05-25T21:49:23.155Z,8.02
2018-05-25T21:51:51.560Z,6.25
2018-05-25T21:54:19.141Z,7.70
2018-05-25T21:56:46.729Z,6.30
2018-05-25T21:59:14.336Z,7.22
2018-05-25T22:01:41.964Z,6.65
2018-05-25T22:04:09.604Z,6.45
2018-05-25T22:06:37.199Z,6.28
2018-05-25T22:09:05.662Z,5.90
2018-05-25T22:11:33.257Z,8.32
2018-05-25T22:14:00.846Z,9.43
2018-05-25T22:16:28.503Z,5.97
2018-05-25T22:19:00.199Z,6.37
2018-05-25T22:21:27.793Z,6.10
2018-05-25T22:23:55.375Z,6.10
2018-05-25T22:26:22.998Z,7.53
2018-05-25T22:28:50.703Z,5.70
2018-05-25T22:31:18.293Z,6.57
2018-05-25T22:33:45.863Z,5.60
2018-05-25T22:36:13.457Z,5.60
2018-05-25T22:38:41.821Z,6.20
2018-05-25T22:41:09.441Z,5.43
2018-05-25T22:43:48.754Z,5.70
2018-05-25T22:46:27.941Z,5.30
2018-05-25T22:49:07.260Z,5.72
2018-05-25T22:51:46.475Z,5.00
2018-05-25T22:54:34.246Z,8.23
2018-05-25T22:57:01.838Z,6.95
2018-05-25T22:59:30.203Z,5.35
2018-05-25T23:01:57.808Z,5.40
2018-05-25T23:04:25.381Z,5.30
2018-05-25T23:06:52.990Z,6.68
2018-05-25T23:09:21.330Z,5.40
2018-05-25T23:11:49.984Z,5.15
2018-05-25T23:14:17.553Z,4.37
2018-05-25T23:16:45.134Z,4.72
2018-05-25T23:19:14.775Z,6.72
2018-05-25T23:21:42.375Z,4.82
2018-05-25T23:24:10.048Z,6.10
2018-05-25T23:26:37.637Z,4.75
2018-05-25T23:29:05.235Z,4.82
2018-05-25T23:31:33.608Z,4.87
2018-05-25T23:34:01.228Z,8.70
2018-05-25T23:36:28.839Z,4.50
2018-05-25T23:38:57.201Z,6.55
2018-05-25T23:41:24.822Z,5.60
2018-05-25T23:43:52.405Z,4.28
2018-05-25T23:46:19.993Z,4.20
2018-05-25T23:48:47.667Z,3.95
2018-05-25T23:51:16.124Z,4.03
2018-05-25T23:53:43.704Z,7.22
2018-05-25T23:56:11.305Z,4.10
2018-05-25T23:58:38.889Z,4.72
